Peotone Weather
Station Historical Data
Daily Summary for February 24, 2012 Units:  English    Metric   Both
« Previous Day
Next Day »
Daily Weekly Monthly Yearly Custom
  High: Low: Average:
Temperature: 36.6 °F 26.3 °F 32.1 °F
Dew Point: 34.0 °F 19.7 °F 28.5 °F
Humidity: 94% 72% 87%
Wind Speed: 26.0mph 0.0mph 12.1mph
Wind Gust: 33.0mph - -
Wind- - WSW
Pressure: 30.01 in 29.40 in -
Precipitation: 0.21 in    
Historical Graphs
 
 
Tabular Data for February 24, 2012
Time Temperature Dew Point Pressure Wind Wind Speed Wind Gust Humidity Rainfall Rate (Hourly) solar Conditions
00:00 35.6 °F 34.0 °F 29.46 in ENE 3.0 mph 10.0 mph 94% 0.00 in 0.00 W/m2
00:10 35.5 °F 34.0 °F 29.47 in NE 4.0 mph 10.0 mph 94% 0.00 in 0.00 W/m2
00:20 35.5 °F 34.0 °F 29.46 in NE 6.0 mph 12.0 mph 94% 0.00 in 0.00 W/m2
00:30 35.4 °F 33.8 °F 29.45 in NE 5.0 mph 7.0 mph 94% 0.00 in 0.00 W/m2
00:40 35.3 °F 33.8 °F 29.44 in ENE 2.0 mph 7.0 mph 94% 0.00 in 0.00 W/m2
00:50 35.3 °F 33.8 °F 29.44 in ENE 3.0 mph 9.0 mph 94% 0.00 in 0.00 W/m2
01:00 35.2 °F 33.7 °F 29.45 in NE 5.0 mph 8.0 mph 94% 0.00 in 0.00 W/m2
01:10 35.2 °F 33.7 °F 29.46 in NE 5.0 mph 7.0 mph 94% 0.00 in 0.00 W/m2
01:20 35.2 °F 33.7 °F 29.45 in NE 3.0 mph 11.0 mph 94% 0.00 in 0.00 W/m2
01:30 35.2 °F 33.7 °F 29.46 in NE 4.0 mph 6.0 mph 94% 0.00 in 0.00 W/m2
01:40 35.2 °F 33.7 °F 29.48 in Calm   4.0 mph 94% 0.00 in 0.00 W/m2
01:50 35.2 °F 33.7 °F 29.45 in ENE 2.0 mph 9.0 mph 94% 0.00 in 0.00 W/m2
02:00 35.1 °F 33.5 °F 29.45 in NE 4.0 mph 8.0 mph 94% 0.00 in 0.00 W/m2
02:10 34.9 °F 33.3 °F 29.44 in NE 5.0 mph 8.0 mph 94% 0.00 in 0.00 W/m2
02:20 34.5 °F 33.0 °F 29.43 in Calm   4.0 mph 94% 0.01 in 0.00 W/m2
02:30 34.3 °F 32.5 °F 29.42 in NE 4.0 mph 10.0 mph 93% 0.02 in 0.00 W/m2
02:40 34.2 °F 32.7 °F 29.42 in NE 5.0 mph 5.0 mph 94% 0.02 in 0.00 W/m2
02:50 34.2 °F 32.7 °F 29.41 in NE 3.0 mph 7.0 mph 94% 0.02 in 0.00 W/m2
03:00 34.2 °F 32.7 °F 29.41 in NNE 2.0 mph 6.0 mph 94% 0.03 in 0.00 W/m2
03:10 34.2 °F 32.7 °F 29.41 in NE 5.0 mph 11.0 mph 94% 0.03 in 0.00 W/m2
03:20 34.1 °F 32.6 °F 29.41 in Calm   7.0 mph 94% 0.03 in 0.00 W/m2
03:30 34.1 °F 32.6 °F 29.40 in NE 9.0 mph 10.0 mph 94% 0.03 in 0.00 W/m2
03:40 34.0 °F 32.5 °F 29.41 in NNE 2.0 mph 10.0 mph 94% 0.02 in 0.00 W/m2
03:50 33.8 °F 32.3 °F 29.41 in NNE 4.0 mph 9.0 mph 94% 0.02 in 0.00 W/m2
04:00 33.6 °F 32.1 °F 29.41 in NE 1.0 mph 5.0 mph 94% 0.02 in 0.00 W/m2
04:10 33.5 °F 32.0 °F 29.42 in NE 4.0 mph 5.0 mph 94% 0.02 in 0.00 W/m2
04:20 33.5 °F 32.0 °F 29.41 in NNE 3.0 mph 6.0 mph 94% 0.02 in 0.00 W/m2
04:30 33.4 °F 31.9 °F 29.41 in NE 2.0 mph 6.0 mph 94% 0.02 in 0.00 W/m2
04:40 33.4 °F 31.9 °F 29.42 in North 5.0 mph 6.0 mph 94% 0.01 in 0.00 W/m2
04:50 33.3 °F 31.8 °F 29.42 in NNW 5.0 mph 7.0 mph 94% 0.01 in 0.00 W/m2
05:00 33.1 °F 31.6 °F 29.42 in NW 9.0 mph 9.0 mph 94% 0.01 in 0.00 W/m2
05:10 33.0 °F 31.5 °F 29.42 in NNW 4.0 mph 10.0 mph 94% 0.01 in 0.00 W/m2
05:20 32.8 °F 31.3 °F 29.43 in NW 6.0 mph 10.0 mph 94% 0.00 in 0.00 W/m2
05:30 32.8 °F 31.3 °F 29.44 in NW 5.0 mph 9.0 mph 94% 0.00 in 0.00 W/m2
05:40 32.8 °F 31.3 °F 29.44 in NNW 6.0 mph 12.0 mph 94% 0.00 in 0.00 W/m2
05:50 32.8 °F 31.3 °F 29.45 in NW 7.0 mph 15.0 mph 94% 0.00 in 0.00 W/m2
06:00 32.8 °F 31.3 °F 29.45 in NNW 9.0 mph 11.0 mph 94% 0.00 in 0.00 W/m2
06:10 32.8 °F 31.3 °F 29.45 in NNW 8.0 mph 18.0 mph 94% 0.00 in 0.00 W/m2
06:20 32.8 °F 31.3 °F 29.46 in North 12.0 mph 15.0 mph 94% 0.00 in 0.00 W/m2
06:30 32.7 °F 31.2 °F 29.47 in NW 12.0 mph 15.0 mph 94% 0.00 in 0.00 W/m2
06:40 32.7 °F 31.2 °F 29.48 in NNW 14.0 mph 15.0 mph 94% 0.00 in 0.00 W/m2
06:50 32.8 °F 31.3 °F 29.48 in NW 15.0 mph 17.0 mph 94% 0.00 in 0.00 W/m2
07:00 32.8 °F 31.3 °F 29.50 in NW 12.0 mph 18.0 mph 94% 0.00 in 5.00 W/m2
07:10 32.8 °F 31.3 °F 29.50 in NW 16.0 mph 17.0 mph 94% 0.13 in 14.00 W/m2
07:20 32.8 °F 31.3 °F 29.52 in NW 12.0 mph 15.0 mph 94% 0.13 in 26.00 W/m2
07:30 32.9 °F 31.4 °F 29.53 in NW 15.0 mph 22.0 mph 94% 0.13 in 28.00 W/m2
07:40 32.8 °F 31.3 °F 29.54 in NW 14.0 mph 15.0 mph 94% 0.13 in 14.00 W/m2
07:50 32.6 °F 31.1 °F 29.55 in WNW 12.0 mph 18.0 mph 94% 0.13 in 26.00 W/m2
08:00 32.4 °F 30.9 °F 29.56 in WNW 19.0 mph 24.0 mph 94% 0.13 in 46.00 W/m2
08:10 32.2 °F 30.7 °F 29.57 in NW 13.0 mph 28.0 mph 94% 0.13 in 102.00 W/m2
08:20 32.1 °F 30.6 °F 29.58 in WNW 14.0 mph 19.0 mph 94% 0.00 in 84.00 W/m2
08:30 32.0 °F 30.5 °F 29.59 in NW 18.0 mph 20.0 mph 94% 0.00 in 104.00 W/m2
08:40 31.9 °F 30.1 °F 29.60 in NW 17.0 mph 25.0 mph 93% 0.00 in 125.00 W/m2
08:50 31.9 °F 30.1 °F 29.60 in WNW 19.0 mph 24.0 mph 93% 0.00 in 146.00 W/m2
09:00 31.9 °F 30.1 °F 29.61 in WNW 16.0 mph 25.0 mph 93% 0.01 in 144.00 W/m2
09:10 32.2 °F 30.7 °F 29.62 in NW 14.0 mph 17.0 mph 94% 0.01 in 172.00 W/m2
09:20 32.3 °F 30.5 °F 29.64 in WNW 15.0 mph 17.0 mph 93% 0.01 in 179.00 W/m2
09:30 32.6 °F 30.8 °F 29.65 in NW 18.0 mph 19.0 mph 93% 0.01 in 199.00 W/m2
09:40 32.6 °F 30.8 °F 29.66 in WNW 12.0 mph 27.0 mph 93% 0.01 in 163.00 W/m2
09:50 32.5 °F 30.4 °F 29.66 in NNW 16.0 mph 19.0 mph 92% 0.01 in 148.00 W/m2
10:00 32.3 °F 30.2 °F 29.67 in WNW 8.0 mph 15.0 mph 92% 0.03 in 134.00 W/m2
10:10 32.3 °F 30.2 °F 29.68 in WNW 17.0 mph 17.0 mph 92% 0.02 in 128.00 W/m2
10:20 32.0 °F 29.9 °F 29.69 in WNW 17.0 mph 19.0 mph 92% 0.02 in 144.00 W/m2
10:30 31.8 °F 29.8 °F 29.70 in WNW 21.0 mph 26.0 mph 92% 0.02 in 158.00 W/m2
10:40 31.9 °F 29.8 °F 29.71 in WNW 7.0 mph 19.0 mph 92% 0.02 in 105.00 W/m2
10:50 32.1 °F 30.0 °F 29.71 in WNW 16.0 mph 21.0 mph 92% 0.02 in 111.00 W/m2
11:00 32.2 °F 30.1 °F 29.72 in WNW 17.0 mph 18.0 mph 92% 0.02 in 105.00 W/m2
11:10 32.0 °F 29.9 °F 29.73 in WNW 16.0 mph 23.0 mph 92% 0.00 in 151.00 W/m2
11:20 32.1 °F 30.0 °F 29.73 in North 11.0 mph 23.0 mph 92% 0.00 in 113.00 W/m2
11:30 32.2 °F 29.9 °F 29.74 in NW 15.0 mph 19.0 mph 91% 0.00 in 123.00 W/m2
11:40 32.0 °F 29.7 °F 29.75 in WNW 17.0 mph 22.0 mph 91% 0.00 in 113.00 W/m2
11:50 32.0 °F 29.7 °F 29.75 in NW 14.0 mph 21.0 mph 91% 0.00 in 123.00 W/m2
12:00 32.1 °F 29.8 °F 29.76 in WNW 8.0 mph 16.0 mph 91% 0.00 in 111.00 W/m2
12:10 32.4 °F 30.1 °F 29.76 in WNW 26.0 mph 26.0 mph 91% 0.00 in 153.00 W/m2
12:20 32.8 °F 30.2 °F 29.76 in NW 20.0 mph 22.0 mph 90% 0.00 in 163.00 W/m2
12:30 33.1 °F 30.2 °F 29.77 in NW 17.0 mph 23.0 mph 89% 0.00 in 139.00 W/m2
12:40 33.3 °F 30.4 °F 29.77 in WNW 11.0 mph 21.0 mph 89% 0.00 in 156.00 W/m2
12:50 33.4 °F 30.5 °F 29.78 in West 15.0 mph 22.0 mph 89% 0.00 in 216.00 W/m2
13:00 34.0 °F 30.8 °F 29.78 in NW 21.0 mph 22.0 mph 88% 0.00 in 441.00 W/m2
13:10 34.9 °F 31.4 °F 29.78 in West 12.0 mph 21.0 mph 87% 0.00 in 211.00 W/m2
13:20 34.8 °F 30.8 °F 29.78 in WNW 10.0 mph 22.0 mph 85% 0.00 in 299.00 W/m2
13:30 35.2 °F 30.9 °F 29.79 in NW 22.0 mph 26.0 mph 84% 0.00 in 281.00 W/m2
13:40 35.7 °F 31.0 °F 29.79 in WNW 17.0 mph 27.0 mph 83% 0.00 in 346.00 W/m2
13:50 36.3 °F 31.3 °F 29.80 in NW 11.0 mph 17.0 mph 82% 0.00 in 290.00 W/m2
14:00 36.6 °F 31.3 °F 29.80 in WNW 16.0 mph 23.0 mph 81% 0.00 in 494.00 W/m2
14:10 35.9 °F 30.3 °F 29.81 in NW 14.0 mph 23.0 mph 80% 0.00 in 141.00 W/m2
14:20 35.9 °F 31.0 °F 29.81 in West 13.0 mph 20.0 mph 82% 0.00 in 223.00 W/m2
14:30 35.5 °F 30.0 °F 29.82 in West 19.0 mph 20.0 mph 80% 0.00 in 116.00 W/m2
14:40 34.8 °F 29.6 °F 29.83 in West 14.0 mph 20.0 mph 81% 0.00 in 60.00 W/m2
14:50 34.4 °F 29.5 °F 29.83 in NW 12.0 mph 23.0 mph 82% 0.00 in 232.00 W/m2
15:00 34.5 °F 29.6 °F 29.84 in WNW 16.0 mph 24.0 mph 82% 0.00 in 83.00 W/m2
15:10 34.5 °F 29.6 °F 29.85 in WNW 17.0 mph 21.0 mph 82% 0.00 in 70.00 W/m2
15:20 34.1 °F 28.9 °F 29.85 in West 14.0 mph 24.0 mph 81% 0.00 in 30.00 W/m2
15:30 33.8 °F 28.6 °F 29.86 in West 13.0 mph 27.0 mph 81% 0.00 in 77.00 W/m2
15:40 33.7 °F 27.9 °F 29.87 in WNW 12.0 mph 17.0 mph 79% 0.00 in 42.00 W/m2
15:50 33.8 °F 28.0 °F 29.87 in West 18.0 mph 27.0 mph 79% 0.00 in 158.00 W/m2
16:00 34.4 °F 28.3 °F 29.87 in West 10.0 mph 20.0 mph 78% 0.00 in 141.00 W/m2
16:10 34.3 °F 28.2 °F 29.88 in WNW 9.0 mph 17.0 mph 78% 0.00 in 14.00 W/m2
16:20 33.6 °F 28.1 °F 29.88 in WNW 17.0 mph 25.0 mph 80% 0.00 in 62.00 W/m2
16:30 32.9 °F 28.0 °F 29.89 in WNW 13.0 mph 19.0 mph 82% 0.00 in 35.00 W/m2
16:40 31.9 °F 27.0 °F 29.89 in West 20.0 mph 33.0 mph 82% 0.00 in 35.00 W/m2
16:50 31.2 °F 26.6 °F 29.90 in WSW 20.0 mph 32.0 mph 83% 0.00 in 16.00 W/m2
17:00 30.8 °F 26.3 °F 29.90 in West 18.0 mph 24.0 mph 83% 0.00 in 11.00 W/m2
17:10 30.6 °F 26.1 °F 29.91 in West 17.0 mph 21.0 mph 83% 0.00 in 11.00 W/m2
17:20 30.5 °F 26.2 °F 29.92 in West 17.0 mph 22.0 mph 84% 0.00 in 0.00 W/m2
17:30 30.0 °F 26.0 °F 29.92 in West 17.0 mph 17.0 mph 85% 0.00 in 0.00 W/m2
17:40 29.8 °F 25.9 °F 29.92 in West 19.0 mph 24.0 mph 85% 0.00 in 0.00 W/m2
17:50 29.7 °F 25.8 °F 29.93 in WSW 16.0 mph 19.0 mph 85% 0.00 in 0.00 W/m2
18:00 29.5 °F 25.6 °F 29.94 in West 19.0 mph 32.0 mph 85% 0.00 in 0.00 W/m2
18:10 29.3 °F 23.9 °F 29.94 in WNW 16.0 mph 25.0 mph 80% 0.00 in 0.00 W/m2
18:20 29.2 °F 22.6 °F 29.95 in WNW 13.0 mph 26.0 mph 76% 0.00 in 0.00 W/m2
18:30 29.0 °F 21.8 °F 29.95 in West 15.0 mph 26.0 mph 74% 0.00 in 0.00 W/m2
18:40 28.7 °F 21.5 °F 29.95 in West 18.0 mph 21.0 mph 74% 0.00 in 0.00 W/m2
18:50 28.3 °F 21.1 °F 29.96 in WNW 23.0 mph 23.0 mph 74% 0.00 in 0.00 W/m2
19:00 28.0 °F 21.1 °F 29.96 in West 17.0 mph 24.0 mph 75% 0.00 in 0.00 W/m2
19:10 27.8 °F 20.9 °F 29.96 in WNW 9.0 mph 21.0 mph 75% 0.00 in 0.00 W/m2
19:20 28.0 °F 21.1 °F 29.97 in WSW 17.0 mph 19.0 mph 75% 0.00 in 0.00 W/m2
19:30 28.0 °F 21.1 °F 29.97 in West 14.0 mph 19.0 mph 75% 0.00 in 0.00 W/m2
19:40 27.9 °F 20.7 °F 29.97 in West 9.0 mph 17.0 mph 74% 0.00 in 0.00 W/m2
19:50 27.9 °F 21.0 °F 29.97 in West 18.0 mph 21.0 mph 75% 0.00 in 0.00 W/m2
20:00 27.9 °F 20.7 °F 29.97 in WNW 21.0 mph 25.0 mph 74% 0.00 in 0.00 W/m2
20:10 27.9 °F 20.7 °F 29.98 in WNW 15.0 mph 19.0 mph 74% 0.00 in 0.00 W/m2
20:20 28.0 °F 20.5 °F 29.98 in NW 13.0 mph 18.0 mph 73% 0.00 in 0.00 W/m2
20:40 27.9 °F 20.1 °F 29.98 in WNW 15.0 mph 19.0 mph 72% 0.00 in 0.00 W/m2
20:50 27.8 °F 20.0 °F 29.99 in West 13.0 mph 22.0 mph 72% 0.00 in 0.00 W/m2
21:00 27.7 °F 19.9 °F 29.99 in West 17.0 mph 18.0 mph 72% 0.00 in 0.00 W/m2
21:10 27.7 °F 20.2 °F 29.99 in NW 13.0 mph 21.0 mph 73% 0.00 in 0.00 W/m2
21:20 27.7 °F 20.5 °F 30.00 in West 9.0 mph 18.0 mph 74% 0.00 in 0.00 W/m2
21:30 27.7 °F 20.5 °F 30.00 in West 11.0 mph 14.0 mph 74% 0.00 in 0.00 W/m2
21:40 27.7 °F 20.2 °F 30.00 in WNW 11.0 mph 15.0 mph 73% 0.00 in 0.00 W/m2
21:50 27.7 °F 20.2 °F 30.00 in West 13.0 mph 19.0 mph 73% 0.00 in 0.00 W/m2
22:00 27.7 °F 20.2 °F 30.00 in West 15.0 mph 20.0 mph 73% 0.00 in 0.00 W/m2
22:10 27.6 °F 20.1 °F 30.00 in NW 17.0 mph 23.0 mph 73% 0.00 in 0.00 W/m2
22:20 27.5 °F 20.0 °F 30.00 in WNW 9.0 mph 21.0 mph 73% 0.00 in 0.00 W/m2
22:30 27.4 °F 20.2 °F 30.00 in WNW 14.0 mph 25.0 mph 74% 0.00 in 0.00 W/m2
22:40 27.2 °F 19.7 °F 30.01 in WNW 14.0 mph 22.0 mph 73% 0.00 in 0.00 W/m2
23:00 27.1 °F 20.5 °F 30.01 in West 20.0 mph 21.0 mph 76% 0.00 in 0.00 W/m2
23:10 27.1 °F 21.2 °F 30.01 in WNW 16.0 mph 23.0 mph 78% 0.00 in 0.00 W/m2
23:20 26.9 °F 21.0 °F 30.00 in WNW 11.0 mph 13.0 mph 78% 0.00 in 0.00 W/m2
23:40 26.3 °F 21.0 °F 30.00 in WNW 16.0 mph 17.0 mph 80% 0.00 in 0.00 W/m2
23:50 26.3 °F 21.0 °F 30.01 in West 15.0 mph 18.0 mph 80% 0.00 in 0.00 W/m2
Peotone Weather Data
Compliments of Weather Underground